createdAt,value
2022-08-02T00:02:35.902Z,98046.89
2022-08-02T00:06:13.163Z,98048.20
2022-08-02T00:09:50.415Z,98047.48
2022-08-02T00:13:26.363Z,98047.25
2022-08-02T00:17:21.875Z,98052.33
2022-08-02T00:21:01.564Z,98055.55
2022-08-02T00:24:30.812Z,98056.73
2022-08-02T00:27:59.245Z,98052.64
2022-08-02T00:31:54.752Z,98054.19
2022-08-02T00:35:15.644Z,98057.86
2022-08-02T00:38:52.949Z,98062.75
2022-08-02T00:42:29.404Z,98062.89
2022-08-02T00:46:06.011Z,98066.79
2022-08-02T00:49:42.747Z,98069.23
2022-08-02T00:53:19.609Z,98072.81
2022-08-02T00:56:56.440Z,98073.35
2022-08-02T01:00:52.045Z,98072.86
2022-08-02T01:04:14.319Z,98066.23
2022-08-02T01:07:49.572Z,98069.05
2022-08-02T01:11:26.793Z,98072.05
2022-08-02T01:15:10.113Z,98073.14
2022-08-02T01:18:45.413Z,98070.73
2022-08-02T01:23:01.146Z,98079.76
2022-08-02T01:26:45.654Z,98083.76
2022-08-02T01:30:07.640Z,98083.38
2022-08-02T01:33:51.809Z,98080.09
2022-08-02T01:37:49.528Z,98076.08
2022-08-02T01:41:16.616Z,98080.05
2022-08-02T01:45:08.896Z,98078.37
2022-08-02T01:48:31.945Z,98078.23
2022-08-02T01:52:30.153Z,98075.22
2022-08-02T01:56:12.226Z,98076.39
2022-08-02T01:59:35.162Z,98084.33
2022-08-02T02:16:22.705Z,98092.62
2022-08-02T02:20:00.226Z,98095.01
2022-08-02T02:23:53.494Z,98098.87
2022-08-02T02:27:16.899Z,98095.55
2022-08-02T02:30:55.274Z,98095.13
2022-08-02T02:34:33.983Z,98094.58
2022-08-02T02:38:08.305Z,98091.25
2022-08-02T02:42:03.264Z,98088.11
2022-08-02T02:45:25.222Z,98086.86
2022-08-02T02:49:01.821Z,98081.39
2022-08-02T02:52:40.960Z,98077.70
2022-08-02T02:56:16.991Z,98078.39
2022-08-02T02:59:53.872Z,98077.91
2022-08-02T03:03:29.733Z,98077.28
2022-08-02T03:07:04.886Z,98081.80
2022-08-02T03:10:44.157Z,98081.55
2022-08-02T03:14:18.574Z,98085.04
2022-08-02T03:17:55.323Z,98088.65
2022-08-02T03:21:33.280Z,98084.90
2022-08-02T03:25:10.216Z,98083.55
2022-08-02T03:28:45.680Z,98084.87
2022-08-02T03:32:23.498Z,98083.55
2022-08-02T03:36:08.603Z,98089.25
2022-08-02T03:39:36.731Z,98099.09
2022-08-02T03:43:14.091Z,98103.77
2022-08-02T03:47:08.819Z,98111.42
2022-08-02T03:50:29.984Z,98113.86
2022-08-02T03:54:06.871Z,98117.00
2022-08-02T03:57:43.860Z,98118.75
2022-08-02T04:01:38.714Z,98121.15
2022-08-02T04:04:59.109Z,98123.11
2022-08-02T04:08:38.300Z,98129.05
2022-08-02T04:12:12.820Z,98135.03
2022-08-02T04:15:50.924Z,98140.82
2022-08-02T04:19:43.899Z,98137.54
2022-08-02T04:23:08.098Z,98139.13
2022-08-02T04:27:19.435Z,98137.86
2022-08-02T04:30:42.904Z,98140.83
2022-08-02T04:34:38.227Z,98144.42
2022-08-02T04:38:09.834Z,98142.70
2022-08-02T04:41:44.800Z,98149.52
2022-08-02T04:45:16.509Z,98149.17
2022-08-02T04:48:52.531Z,98145.84
2022-08-02T04:52:25.998Z,98146.85
2022-08-02T04:56:21.757Z,98150.59
2022-08-02T04:59:42.197Z,98153.57
2022-08-02T05:03:19.010Z,98158.15
2022-08-02T05:06:55.706Z,98156.70
2022-08-02T05:10:33.020Z,98162.61
2022-08-02T05:14:09.379Z,98166.54
2022-08-02T05:17:48.545Z,98167.98
2022-08-02T05:21:23.016Z,98163.23
2022-08-02T05:24:59.710Z,98173.19
2022-08-02T05:28:36.611Z,98172.44
2022-08-02T05:32:13.534Z,98182.06
2022-08-02T05:35:50.043Z,98179.35
2022-08-02T05:39:26.888Z,98182.77
2022-08-02T05:43:03.666Z,98184.38
2022-08-02T05:46:40.392Z,98191.01
2022-08-02T05:50:17.854Z,98199.55
2022-08-02T05:54:24.162Z,98199.79
2022-08-02T05:57:50.418Z,98202.77
2022-08-02T06:01:29.170Z,98207.88
2022-08-02T06:05:21.391Z,98208.85
2022-08-02T06:08:48.547Z,98211.31
2022-08-02T06:12:20.658Z,98216.64
2022-08-02T06:15:59.641Z,98220.50
2022-08-02T06:19:51.015Z,98220.98
2022-08-02T06:23:14.203Z,98225.59
2022-08-02T06:27:13.381Z,98226.80
2022-08-02T06:30:54.025Z,98234.52
2022-08-02T06:34:14.811Z,98242.09
2022-08-02T06:38:18.141Z,98251.17
2022-08-02T06:41:42.496Z,98251.36
2022-08-02T06:45:36.957Z,98257.67
2022-08-02T06:49:16.444Z,98260.36
2022-08-02T06:52:37.392Z,98264.38
2022-08-02T06:56:14.816Z,98262.18
2022-08-02T06:59:51.107Z,98260.69
2022-08-02T07:03:46.460Z,98258.40
2022-08-02T07:07:07.704Z,98256.59
2022-08-02T07:10:44.594Z,98257.23
2022-08-02T07:14:20.938Z,98257.77
2022-08-02T07:17:57.717Z,98264.52
2022-08-02T07:21:59.447Z,98267.20
2022-08-02T07:26:03.139Z,98268.01
2022-08-02T07:29:45.216Z,98265.20
2022-08-02T07:33:07.897Z,98265.92
2022-08-02T07:36:44.587Z,98267.34
2022-08-02T07:40:22.466Z,98266.13
2022-08-02T07:43:59.538Z,98269.77
2022-08-02T07:47:56.132Z,98271.36
2022-08-02T07:51:17.401Z,98269.21
2022-08-02T07:54:53.989Z,98271.30
2022-08-02T07:58:31.999Z,98273.04
2022-08-02T08:02:08.366Z,98275.70
2022-08-02T08:05:44.276Z,98277.98
2022-08-02T08:09:21.112Z,98283.23
2022-08-02T08:12:58.166Z,98286.63
2022-08-02T08:16:53.584Z,98286.77
2022-08-02T08:20:16.042Z,98290.96
2022-08-02T08:23:51.362Z,98288.55
2022-08-02T08:27:28.152Z,98287.66
2022-08-02T08:31:05.002Z,98289.11
2022-08-02T08:35:03.043Z,98288.34
2022-08-02T08:38:26.196Z,98291.17
2022-08-02T08:42:01.423Z,98293.86
2022-08-02T08:45:56.546Z,98299.38
2022-08-02T08:49:31.409Z,98300.49
2022-08-02T08:53:08.110Z,98302.25
2022-08-02T08:56:35.033Z,98302.82
2022-08-02T09:00:29.003Z,98310.09
2022-08-02T09:04:08.396Z,98308.77
2022-08-02T09:07:29.003Z,98312.59
2022-08-02T09:11:19.410Z,98309.96
2022-08-02T09:14:43.476Z,98307.95
2022-08-02T09:18:19.550Z,98302.65
2022-08-02T09:22:05.604Z,98305.87
2022-08-02T09:25:33.431Z,98308.58
2022-08-02T09:29:09.914Z,98316.92
2022-08-02T09:32:48.483Z,98324.33
2022-08-02T09:36:24.575Z,98330.02
2022-08-02T09:40:00.883Z,98332.84
2022-08-02T09:44:04.919Z,98334.48
2022-08-02T09:47:31.003Z,98327.45
2022-08-02T09:51:04.516Z,98325.63
2022-08-02T09:54:42.944Z,98328.61
2022-08-02T09:58:21.413Z,98326.77
2022-08-02T10:02:01.402Z,98322.71
2022-08-02T10:05:50.847Z,98321.02
2022-08-02T10:09:19.409Z,98322.95
2022-08-02T10:12:55.032Z,98320.95
2022-08-02T10:16:34.762Z,98316.55
2022-08-02T10:20:09.333Z,98316.52
2022-08-02T10:24:07.849Z,98315.87
2022-08-02T10:27:43.233Z,98318.11
2022-08-02T10:31:19.046Z,98318.98
2022-08-02T10:35:23.357Z,98317.27
2022-08-02T10:38:46.574Z,98318.58
2022-08-02T10:42:47.082Z,98316.23
2022-08-02T10:46:31.966Z,98315.72
2022-08-02T10:49:55.749Z,98316.31
2022-08-02T10:53:31.085Z,98310.80
2022-08-02T10:57:35.052Z,98302.91
2022-08-02T11:01:38.832Z,98305.17
2022-08-02T11:05:07.201Z,98309.64
2022-08-02T11:08:38.910Z,98312.25
2022-08-02T11:12:20.206Z,98311.97
2022-08-02T11:16:11.972Z,98310.83
2022-08-02T11:20:10.102Z,98312.16
2022-08-02T11:23:44.923Z,98310.16
2022-08-02T11:27:30.679Z,98303.00
2022-08-02T11:31:00.051Z,98304.38
2022-08-02T11:34:37.538Z,98303.38
2022-08-02T11:38:21.579Z,98303.08
2022-08-02T11:41:48.956Z,98304.27
2022-08-02T11:45:29.731Z,98297.06
2022-08-02T11:48:56.754Z,98303.30
2022-08-02T11:52:35.027Z,98299.61
2022-08-02T11:56:11.051Z,98302.70
2022-08-02T11:59:53.290Z,98299.97
2022-08-02T12:03:24.291Z,98305.64
2022-08-02T12:07:01.987Z,98308.90
2022-08-02T12:10:56.106Z,98311.16
2022-08-02T12:14:18.020Z,98311.17
2022-08-02T12:18:12.987Z,98305.66
2022-08-02T12:21:34.903Z,98303.17
2022-08-02T12:25:34.598Z,98305.33
2022-08-02T12:28:59.514Z,98305.77
2022-08-02T12:33:06.968Z,98300.97
2022-08-02T12:36:34.687Z,98296.00
2022-08-02T12:40:32.479Z,98292.42
2022-08-02T12:43:55.341Z,98292.77
2022-08-02T12:47:35.746Z,98294.14
2022-08-02T12:51:50.827Z,98293.89
2022-08-02T12:56:00.786Z,98301.57
2022-08-02T12:59:08.341Z,98299.56
2022-08-02T13:04:07.235Z,98296.52
2022-08-02T13:07:06.418Z,98296.63
2022-08-02T13:10:28.759Z,98298.03
2022-08-02T13:14:05.295Z,98298.41
2022-08-02T13:17:42.234Z,98296.71
2022-08-02T13:21:39.973Z,98295.52
2022-08-02T13:25:00.876Z,98289.38
2022-08-02T13:28:57.111Z,98282.45
2022-08-02T13:32:21.038Z,98285.05
2022-08-02T13:35:55.323Z,98288.38
2022-08-02T13:39:31.919Z,98280.73
2022-08-02T13:43:08.442Z,98284.77
2022-08-02T13:46:46.310Z,98283.41
2022-08-02T13:50:40.764Z,98279.99
2022-08-02T13:54:20.427Z,98283.98
2022-08-02T13:57:41.506Z,98285.17
2022-08-02T14:01:17.996Z,98285.76
2022-08-02T14:05:14.348Z,98284.51
2022-08-02T14:08:35.949Z,98278.02
2022-08-02T14:12:13.365Z,98276.23
2022-08-02T14:16:08.382Z,98274.42
2022-08-02T14:19:29.747Z,98281.34
2022-08-02T14:23:06.833Z,98280.17
2022-08-02T14:26:43.687Z,98285.71
2022-08-02T14:30:19.889Z,98279.19
2022-08-02T14:33:56.594Z,98281.05
2022-08-02T14:37:52.161Z,98282.52
2022-08-02T14:41:33.312Z,98277.35
2022-08-02T14:44:54.298Z,98275.12
2022-08-02T14:48:30.966Z,98282.26
2022-08-02T14:52:09.546Z,98280.91
2022-08-02T14:56:03.527Z,98278.02
2022-08-02T14:59:24.511Z,98277.90
2022-08-02T15:03:20.110Z,98278.30
2022-08-02T15:06:41.883Z,98272.30
2022-08-02T15:10:19.054Z,98276.52
2022-08-02T15:13:55.490Z,98272.48
2022-08-02T15:17:32.396Z,98269.35
2022-08-02T15:21:25.893Z,98275.55
2022-08-02T15:24:51.845Z,98271.14
2022-08-02T15:28:48.293Z,98268.89
2022-08-02T15:32:20.537Z,98270.06
2022-08-02T15:35:53.044Z,98267.95
2022-08-02T15:39:30.339Z,98269.06
2022-08-02T15:43:25.477Z,98269.65
2022-08-02T15:46:46.465Z,98272.77
2022-08-02T15:50:42.883Z,98276.44
2022-08-02T15:54:22.376Z,98271.94
2022-08-02T15:57:43.371Z,98267.48
2022-08-02T16:01:20.563Z,98270.19
2022-08-02T16:04:57.108Z,98271.63
2022-08-02T16:08:33.793Z,98276.52
2022-08-02T16:12:10.918Z,98269.29
2022-08-02T16:15:47.396Z,98269.57
2022-08-02T16:19:47.940Z,98277.65
2022-08-02T16:23:08.310Z,98273.29
2022-08-02T16:26:45.227Z,98272.70
2022-08-02T16:30:42.032Z,98274.73
2022-08-02T16:34:21.804Z,98272.91
2022-08-02T16:37:51.860Z,98275.71
2022-08-02T16:41:19.630Z,98271.38
2022-08-02T16:45:15.139Z,98272.50
2022-08-02T16:48:41.272Z,98274.83
2022-08-02T16:52:19.000Z,98272.75
2022-08-02T16:55:53.987Z,98274.91
2022-08-02T16:59:42.591Z,98275.77
2022-08-02T17:03:13.403Z,98282.88
2022-08-02T17:06:47.865Z,98281.77
2022-08-02T17:10:21.032Z,98283.95
2022-08-02T17:13:58.201Z,98275.81
2022-08-02T17:17:35.420Z,98277.42
2022-08-02T17:21:11.557Z,98278.84
2022-08-02T17:24:48.510Z,98281.45
2022-08-02T17:28:32.066Z,98282.70
2022-08-02T17:32:05.688Z,98280.96
2022-08-02T17:35:43.921Z,98282.58
2022-08-02T17:39:15.599Z,98278.16
2022-08-02T17:43:14.203Z,98276.23
2022-08-02T17:46:35.825Z,98272.23
2022-08-02T17:50:12.860Z,98270.84
2022-08-02T17:53:49.435Z,98268.63
2022-08-02T17:57:57.464Z,98268.88
2022-08-02T18:01:23.731Z,98269.35
2022-08-02T18:04:46.245Z,98274.48
2022-08-02T18:08:24.154Z,98272.02
2022-08-02T18:12:19.495Z,98279.64
2022-08-02T18:16:01.644Z,98281.27
2022-08-02T18:19:52.817Z,98286.05
2022-08-02T18:23:16.354Z,98291.38
2022-08-02T18:26:53.034Z,98291.95
2022-08-02T18:30:31.189Z,98290.80
2022-08-02T18:34:25.569Z,98299.35
2022-08-02T18:37:52.168Z,98298.25
2022-08-02T18:41:23.112Z,98294.84
2022-08-02T18:44:59.739Z,98297.81
2022-08-02T18:48:38.254Z,98310.40
2022-08-02T18:52:14.508Z,98315.08
2022-08-02T18:55:59.700Z,98307.89
2022-08-02T18:59:26.918Z,98306.27
2022-08-02T19:03:03.744Z,98310.84
2022-08-02T19:06:40.497Z,98315.45
2022-08-02T19:10:38.489Z,98323.84
2022-08-02T19:14:10.713Z,98327.48
2022-08-02T19:17:53.682Z,98331.80
2022-08-02T19:22:17.807Z,98334.58
2022-08-02T19:25:27.794Z,98339.06
2022-08-02T19:28:48.869Z,98341.23
2022-08-02T19:32:42.982Z,98343.72
2022-08-02T19:36:06.901Z,98344.00
2022-08-02T19:39:45.764Z,98340.39
2022-08-02T19:44:27.028Z,98336.77
2022-08-02T19:47:01.895Z,98338.59
2022-08-02T19:50:39.918Z,98339.92
2022-08-02T19:54:18.626Z,98337.89
2022-08-02T19:57:53.916Z,98339.64
2022-08-02T20:01:38.236Z,98343.63
2022-08-02T20:05:08.135Z,98345.61
2022-08-02T20:09:02.306Z,98348.42
2022-08-02T20:12:23.342Z,98351.33
2022-08-02T20:16:00.482Z,98354.40
2022-08-02T20:19:41.142Z,98363.09
2022-08-02T20:23:32.627Z,98362.75
2022-08-02T20:26:59.462Z,98361.19
2022-08-02T20:30:33.854Z,98360.02
2022-08-02T20:34:09.140Z,98354.72
2022-08-02T20:37:59.538Z,98354.87
2022-08-02T20:41:46.292Z,98351.61
2022-08-02T20:45:08.782Z,98349.50
2022-08-02T20:48:45.114Z,98346.83
2022-08-02T20:52:23.930Z,98348.27
2022-08-02T20:55:58.767Z,98348.55
2022-08-02T20:59:37.381Z,98347.72
2022-08-02T21:03:14.411Z,98338.30
2022-08-02T21:06:48.794Z,98339.81
2022-08-02T21:10:26.335Z,98338.96
2022-08-02T21:14:08.885Z,98330.76
2022-08-02T21:17:45.836Z,98331.84
2022-08-02T21:21:16.631Z,98334.52
2022-08-02T21:25:11.953Z,98334.17
2022-08-02T21:28:43.555Z,98333.09
2022-08-02T21:32:14.192Z,98335.80
2022-08-02T21:35:50.661Z,98334.56
2022-08-02T21:39:27.361Z,98335.65
2022-08-02T21:43:35.235Z,98338.14
2022-08-02T21:46:58.918Z,98336.85
2022-08-02T21:50:35.627Z,98342.48
2022-08-02T21:54:31.330Z,98339.61
2022-08-02T21:57:52.394Z,98339.98
2022-08-02T22:01:29.818Z,98343.34
2022-08-02T22:05:06.701Z,98340.81
2022-08-02T22:08:42.736Z,98339.88
2022-08-02T22:12:20.525Z,98340.09
2022-08-02T22:15:59.832Z,98344.90
2022-08-02T22:19:33.092Z,98342.52
2022-08-02T22:23:50.012Z,98342.41
2022-08-02T22:27:09.419Z,98344.83
2022-08-02T22:31:05.271Z,98346.54
2022-08-02T22:34:51.123Z,98343.16
2022-08-02T22:38:27.045Z,98343.31
2022-08-02T22:42:05.495Z,98343.21
2022-08-02T22:45:28.133Z,98344.13
2022-08-02T22:49:04.834Z,98346.86
2022-08-02T22:52:41.496Z,98343.61
2022-08-02T22:56:18.531Z,98345.59
2022-08-02T22:59:55.205Z,98341.61
2022-08-02T23:03:32.668Z,98343.98
2022-08-02T23:07:08.871Z,98339.44
2022-08-02T23:10:45.597Z,98340.10
2022-08-02T23:14:22.235Z,98343.52
2022-08-02T23:18:17.505Z,98341.58
2022-08-02T23:21:46.191Z,98343.50
2022-08-02T23:25:21.836Z,98346.11
2022-08-02T23:28:58.778Z,98343.03
2022-08-02T23:32:54.275Z,98337.48
2022-08-02T23:36:14.760Z,98334.59
2022-08-02T23:40:10.551Z,98333.29
2022-08-02T23:43:31.145Z,98331.80
2022-08-02T23:47:08.356Z,98327.69
2022-08-02T23:50:44.999Z,98325.75
2022-08-02T23:54:21.843Z,98325.75
2022-08-02T23:58:18.260Z,98322.94
